createdAt,value
2022-08-11T00:00:09.338Z,78.94
2022-08-11T00:02:40.960Z,78.13
2022-08-11T00:05:10.485Z,78.69
2022-08-11T00:07:53.380Z,79.25
2022-08-11T00:10:22.823Z,79.08
2022-08-11T00:13:01.065Z,79.49
2022-08-11T00:15:37.472Z,78.45
2022-08-11T00:18:04.754Z,78.51
2022-08-11T00:20:33.915Z,78.30
2022-08-11T00:23:14.418Z,77.16
2022-08-11T00:25:50.220Z,77.46
2022-08-11T00:28:31.283Z,78.48
2022-08-11T00:31:06.813Z,78.17
2022-08-11T00:33:44.085Z,77.40
2022-08-11T00:36:15.149Z,77.43
2022-08-11T00:38:43.451Z,78.09
2022-08-11T00:41:14.721Z,77.23
2022-08-11T00:43:48.538Z,78.08
2022-08-11T00:46:48.455Z,78.99
2022-08-11T00:49:24.940Z,78.74
2022-08-11T00:52:13.844Z,77.86
2022-08-11T00:55:03.100Z,77.48
2022-08-11T00:57:58.078Z,77.82
2022-08-11T01:00:27.152Z,76.79
2022-08-11T01:03:03.345Z,78.13
2022-08-11T01:05:57.699Z,78.31
2022-08-11T01:08:39.773Z,78.40
2022-08-11T01:11:26.104Z,77.87
2022-08-11T01:13:53.259Z,77.38
2022-08-11T01:16:47.806Z,77.66
2022-08-11T01:20:47.804Z,76.60
2022-08-11T01:22:43.553Z,76.58
2022-08-11T01:25:16.887Z,75.73
2022-08-11T01:28:22.213Z,74.81
2022-08-11T01:30:58.547Z,73.30
2022-08-11T01:33:37.792Z,73.87
2022-08-11T01:36:20.772Z,74.27
2022-08-11T01:39:18.442Z,73.22
2022-08-11T01:42:13.559Z,73.92
2022-08-11T01:45:06.996Z,74.01
2022-08-11T01:47:52.601Z,73.59
2022-08-11T01:50:47.782Z,73.23
2022-08-11T01:53:35.679Z,73.28
2022-08-11T01:56:11.238Z,73.66
2022-08-11T01:59:10.822Z,72.04
2022-08-11T02:01:59.943Z,72.57
2022-08-11T02:04:36.056Z,70.98
2022-08-11T02:07:18.852Z,71.24
2022-08-11T02:10:36.706Z,71.07
2022-08-11T02:13:35.571Z,72.03
2022-08-11T02:16:29.398Z,69.47
2022-08-11T02:19:29.154Z,70.35
2022-08-11T02:22:42.435Z,71.50
2022-08-11T02:25:31.766Z,71.15
2022-08-11T02:28:17.306Z,71.97
2022-08-11T02:32:15.587Z,71.68
2022-08-11T02:34:59.843Z,71.54
2022-08-11T02:37:27.762Z,71.07
2022-08-11T02:39:58.156Z,71.41
2022-08-11T02:42:44.406Z,70.83
2022-08-11T02:45:54.700Z,70.41
2022-08-11T02:49:00.805Z,70.44
2022-08-11T02:51:59.132Z,70.34
2022-08-11T02:54:26.346Z,70.35
2022-08-11T02:57:04.312Z,70.00
2022-08-11T02:59:51.639Z,68.91
2022-08-11T03:02:51.262Z,69.89
2022-08-11T03:05:31.767Z,72.52
2022-08-11T03:08:35.895Z,72.15
2022-08-11T03:11:36.989Z,72.28
2022-08-11T03:14:40.628Z,71.27
2022-08-11T03:17:15.759Z,69.75
2022-08-11T03:20:19.745Z,68.85
2022-08-11T03:22:59.205Z,68.54
2022-08-11T03:25:46.784Z,66.99
2022-08-11T03:28:35.444Z,68.26
2022-08-11T03:31:32.563Z,66.13
2022-08-11T03:34:30.172Z,66.90
2022-08-11T03:37:41.262Z,63.83
2022-08-11T03:40:38.804Z,64.29
2022-08-11T03:43:58.006Z,63.36
2022-08-11T03:46:38.291Z,64.51
2022-08-11T03:49:23.597Z,63.71
2022-08-11T03:52:12.021Z,63.01
2022-08-11T03:54:50.530Z,64.46
2022-08-11T03:57:34.979Z,63.74
2022-08-11T04:00:14.765Z,62.99
2022-08-11T04:02:54.359Z,64.72
2022-08-11T04:05:39.687Z,63.05
2022-08-11T04:08:20.609Z,63.10
2022-08-11T04:11:22.467Z,64.55
2022-08-11T04:14:48.131Z,62.03
2022-08-11T04:17:27.142Z,63.36
2022-08-11T04:20:05.307Z,61.79
2022-08-11T04:23:03.242Z,62.49
2022-08-11T04:25:51.064Z,61.87
2022-08-11T04:28:42.907Z,62.97
2022-08-11T04:31:50.608Z,62.78
2022-08-11T04:34:17.453Z,61.88
2022-08-11T04:37:28.350Z,60.82
2022-08-11T04:40:37.180Z,61.71
2022-08-11T04:44:04.637Z,63.76
2022-08-11T04:46:56.454Z,61.89
2022-08-11T04:50:01.055Z,62.18
2022-08-11T04:52:46.950Z,61.53
2022-08-11T04:56:03.530Z,61.06
2022-08-11T04:59:27.376Z,60.90
2022-08-11T05:02:23.389Z,60.18
2022-08-11T05:05:31.032Z,61.01
2022-08-11T05:08:21.940Z,60.95
2022-08-11T05:11:09.578Z,61.05
2022-08-11T05:14:01.669Z,59.83
2022-08-11T05:16:50.124Z,60.32
2022-08-11T05:19:37.913Z,60.07
2022-08-11T05:22:26.900Z,60.11
2022-08-11T05:26:45.269Z,60.25
2022-08-11T05:28:33.965Z,59.58
2022-08-11T05:31:22.972Z,59.06
2022-08-11T05:34:10.983Z,59.12
2022-08-11T05:36:48.554Z,59.64
2022-08-11T05:39:45.569Z,59.27
2022-08-11T05:42:31.524Z,60.43
2022-08-11T05:45:19.996Z,61.66
2022-08-11T05:48:09.395Z,60.52
2022-08-11T05:50:55.135Z,60.44
2022-08-11T05:53:45.681Z,59.13
2022-08-11T05:56:20.099Z,59.54
2022-08-11T05:58:51.791Z,57.63
2022-08-11T06:01:32.679Z,58.03
2022-08-11T06:04:15.028Z,58.09
2022-08-11T06:07:04.039Z,58.61
2022-08-11T06:09:44.514Z,57.95
2022-08-11T06:12:21.970Z,57.93
2022-08-11T06:14:51.053Z,58.51
2022-08-11T06:17:25.390Z,57.79
2022-08-11T06:19:57.244Z,59.02
2022-08-11T06:22:35.169Z,62.06
2022-08-11T06:25:02.853Z,61.55
2022-08-11T06:27:31.903Z,63.42
2022-08-11T06:29:59.234Z,62.33
2022-08-11T06:32:32.248Z,63.43
2022-08-11T06:35:27.406Z,64.61
2022-08-11T06:38:09.433Z,63.00
2022-08-11T06:41:22.094Z,63.30
2022-08-11T06:44:13.649Z,62.32
2022-08-11T06:46:42.650Z,61.41
2022-08-11T06:49:31.611Z,61.96
2022-08-11T06:52:04.733Z,62.06
2022-08-11T06:54:35.178Z,64.29
2022-08-11T06:57:30.260Z,68.98
2022-08-11T07:00:18.200Z,69.18
2022-08-11T07:02:57.658Z,74.31
2022-08-11T07:05:37.560Z,74.96
2022-08-11T07:08:51.801Z,78.50
2022-08-11T07:12:03.773Z,79.42
2022-08-11T07:14:50.363Z,78.15
2022-08-11T07:17:24.410Z,78.87
2022-08-11T07:20:19.946Z,77.16
2022-08-11T07:23:26.603Z,77.22
2022-08-11T07:26:12.766Z,75.00
2022-08-11T07:29:00.914Z,74.39
2022-08-11T07:31:42.565Z,77.19
2022-08-11T07:34:25.076Z,76.08
2022-08-11T07:36:59.719Z,76.37
2022-08-11T07:39:28.769Z,78.37
2022-08-11T07:41:57.524Z,75.81
2022-08-11T07:44:34.462Z,76.25
2022-08-11T07:47:20.950Z,74.05
2022-08-11T07:50:07.337Z,70.52
2022-08-11T07:52:35.054Z,69.37
2022-08-11T07:55:08.436Z,66.08
2022-08-11T07:58:16.068Z,67.88
2022-08-11T08:01:10.233Z,69.02
2022-08-11T08:03:57.263Z,62.46
2022-08-11T08:06:43.079Z,61.09
2022-08-11T08:09:29.057Z,61.48
2022-08-11T08:12:14.878Z,61.40
2022-08-11T08:15:01.204Z,58.96
2022-08-11T08:18:09.915Z,55.93
2022-08-11T08:20:55.317Z,53.73
2022-08-11T08:23:34.773Z,51.89
2022-08-11T08:26:04.537Z,54.71
2022-08-11T08:28:32.741Z,54.96
2022-08-11T08:31:00.259Z,54.30
2022-08-11T08:33:29.001Z,51.91
2022-08-11T08:36:17.051Z,52.66
2022-08-11T08:38:48.781Z,51.83
2022-08-11T08:41:34.069Z,55.11
2022-08-11T08:44:39.192Z,54.86
2022-08-11T08:46:55.584Z,50.93
2022-08-11T08:49:28.374Z,49.55
2022-08-11T08:52:19.489Z,49.16
2022-08-11T08:54:43.495Z,48.39
2022-08-11T08:57:12.176Z,46.32
2022-08-11T08:59:47.447Z,46.79
2022-08-11T09:02:33.540Z,48.70
2022-08-11T09:05:05.895Z,48.44
2022-08-11T09:07:38.989Z,48.35
2022-08-11T09:10:11.556Z,46.80
2022-08-11T09:12:40.637Z,46.68
2022-08-11T09:15:10.411Z,46.18
2022-08-11T09:17:45.394Z,43.90
2022-08-11T09:20:20.195Z,39.26
2022-08-11T09:26:18.108Z,35.24
2022-08-11T09:28:45.719Z,34.72
2022-08-11T09:31:13.731Z,35.83
2022-08-11T09:33:42.718Z,36.75
2022-08-11T09:36:28.697Z,35.72
2022-08-11T09:39:14.602Z,35.13
2022-08-11T09:42:01.729Z,31.95
2022-08-11T09:44:48.678Z,32.60
2022-08-11T09:47:29.833Z,33.72
2022-08-11T09:50:01.213Z,31.50
2022-08-11T09:52:57.192Z,33.09
2022-08-11T09:55:28.071Z,32.86
2022-08-11T09:58:42.500Z,33.72
2022-08-11T10:01:02.159Z,33.82
2022-08-11T10:03:29.607Z,33.47
2022-08-11T10:06:22.214Z,32.48
2022-08-11T10:09:03.137Z,31.63
2022-08-11T10:11:30.476Z,31.91
2022-08-11T10:14:33.971Z,29.43
2022-08-11T10:17:08.399Z,29.49
2022-08-11T10:19:38.040Z,30.17
2022-08-11T10:22:24.601Z,30.13
2022-08-11T10:25:14.520Z,28.60
2022-08-11T10:28:28.305Z,28.35
2022-08-11T10:30:52.930Z,27.67
2022-08-11T10:33:44.161Z,28.78
2022-08-11T10:36:25.040Z,28.64
2022-08-11T10:38:52.412Z,27.41
2022-08-11T10:41:38.770Z,28.20
2022-08-11T10:44:26.061Z,27.34
2022-08-11T10:47:11.934Z,26.98
2022-08-11T10:49:39.250Z,26.49
2022-08-11T10:52:25.092Z,26.40
2022-08-11T10:55:11.016Z,26.21
2022-08-11T10:58:04.536Z,26.09
2022-08-11T11:00:33.127Z,26.57
2022-08-11T11:03:07.108Z,27.39
2022-08-11T11:06:12.597Z,27.08
2022-08-11T11:09:00.032Z,26.28
2022-08-11T11:11:54.660Z,26.30
2022-08-11T11:14:45.733Z,26.30
2022-08-11T11:17:26.055Z,27.30
2022-08-11T11:19:55.723Z,27.40
2022-08-11T11:22:38.415Z,28.76
2022-08-11T11:25:20.974Z,27.87
2022-08-11T11:28:30.719Z,27.92
2022-08-11T11:31:22.622Z,26.92
2022-08-11T11:34:11.968Z,26.28
2022-08-11T11:36:47.762Z,25.71
2022-08-11T11:39:18.288Z,26.17
2022-08-11T11:41:45.786Z,26.90
2022-08-11T11:44:13.294Z,26.60
2022-08-11T11:46:40.875Z,27.17
2022-08-11T11:49:16.735Z,26.41
2022-08-11T11:51:50.287Z,26.30
2022-08-11T11:54:17.991Z,27.21
2022-08-11T11:56:45.608Z,27.26
2022-08-11T11:59:31.747Z,26.48
2022-08-11T12:01:59.159Z,26.38
2022-08-11T12:04:26.604Z,25.88
2022-08-11T12:07:13.916Z,26.40
2022-08-11T12:09:41.721Z,25.59
2022-08-11T12:12:28.635Z,25.36
2022-08-11T12:14:56.211Z,25.50
2022-08-11T12:17:23.512Z,24.65
2022-08-11T12:19:51.216Z,25.46
2022-08-11T12:22:38.537Z,26.25
2022-08-11T12:25:24.920Z,26.18
2022-08-11T12:27:54.446Z,26.19
2022-08-11T12:30:22.031Z,26.41
2022-08-11T12:32:49.313Z,26.85
2022-08-11T12:35:16.821Z,26.46
2022-08-11T12:38:00.443Z,26.23
2022-08-11T12:41:15.179Z,26.13
2022-08-11T12:43:57.520Z,26.37
2022-08-11T12:46:35.639Z,26.06
2022-08-11T12:49:44.719Z,25.76
2022-08-11T12:52:21.754Z,26.42
2022-08-11T12:55:00.320Z,26.45
2022-08-11T12:58:12.648Z,26.30
2022-08-11T13:00:58.527Z,26.38
2022-08-11T13:03:44.331Z,25.98
2022-08-11T13:06:19.942Z,26.25
2022-08-11T13:08:48.267Z,26.75
2022-08-11T13:11:55.549Z,26.63
2022-08-11T13:14:22.687Z,26.98
2022-08-11T13:17:08.892Z,27.29
2022-08-11T13:19:36.367Z,27.16
2022-08-11T13:22:05.389Z,26.34
2022-08-11T13:24:34.289Z,25.82
2022-08-11T13:27:03.067Z,25.45
2022-08-11T13:29:30.410Z,25.72
2022-08-11T13:32:01.118Z,26.03
2022-08-11T13:34:31.169Z,25.57
2022-08-11T13:37:00.213Z,25.16
2022-08-11T13:39:29.021Z,25.05
2022-08-11T13:41:58.015Z,26.58
2022-08-11T13:44:30.108Z,26.24
2022-08-11T13:47:01.456Z,26.37
2022-08-11T13:49:32.841Z,26.96
2022-08-11T13:52:00.120Z,27.36
2022-08-11T13:54:32.004Z,28.38
2022-08-11T13:57:08.187Z,29.93
2022-08-11T13:59:51.974Z,30.91
2022-08-11T14:02:29.573Z,30.57
2022-08-11T14:05:00.276Z,30.34
2022-08-11T14:07:32.267Z,28.61
2022-08-11T14:10:00.377Z,28.19
2022-08-11T14:12:48.619Z,28.26
2022-08-11T14:15:34.635Z,27.73
2022-08-11T14:18:36.063Z,28.38
2022-08-11T14:21:22.787Z,28.77
2022-08-11T14:23:59.512Z,30.46
2022-08-11T14:26:29.092Z,31.39
2022-08-11T14:29:23.713Z,30.89
2022-08-11T14:32:02.738Z,31.49
2022-08-11T14:34:30.450Z,30.88
2022-08-11T14:37:01.927Z,31.05
2022-08-11T14:39:30.921Z,31.70
2022-08-11T14:42:24.394Z,31.16
2022-08-11T14:45:12.976Z,30.65
2022-08-11T14:47:41.270Z,30.62
2022-08-11T14:50:12.675Z,30.55
2022-08-11T14:52:49.245Z,30.24
2022-08-11T14:55:35.893Z,30.50
2022-08-11T14:58:03.439Z,30.12
2022-08-11T15:00:31.210Z,29.21
2022-08-11T15:03:11.172Z,29.16
2022-08-11T15:05:56.636Z,30.74
2022-08-11T15:08:47.841Z,30.88
2022-08-11T15:11:35.527Z,31.20
2022-08-11T15:14:05.605Z,30.42
2022-08-11T15:16:51.756Z,31.06
2022-08-11T15:19:21.305Z,30.61
2022-08-11T15:22:08.322Z,30.94
2022-08-11T15:24:37.141Z,31.95
2022-08-11T15:27:41.512Z,32.23
2022-08-11T15:30:33.487Z,32.31
2022-08-11T15:33:25.298Z,32.98
2022-08-11T15:36:25.477Z,33.51
2022-08-11T15:38:58.594Z,33.54
2022-08-11T15:41:59.093Z,34.61
2022-08-11T15:45:06.421Z,35.50
2022-08-11T15:47:41.693Z,36.04
2022-08-11T15:50:13.791Z,36.81
2022-08-11T15:53:03.150Z,37.40
2022-08-11T15:55:32.362Z,37.74
2022-08-11T15:58:18.419Z,38.16
2022-08-11T16:01:09.073Z,38.26
2022-08-11T16:04:07.602Z,38.73
2022-08-11T16:06:49.997Z,38.62
2022-08-11T16:09:35.552Z,38.27
2022-08-11T16:12:17.167Z,39.18
2022-08-11T16:15:04.939Z,40.54
2022-08-11T16:17:34.898Z,39.62
2022-08-11T16:20:02.467Z,40.13
2022-08-11T16:22:38.124Z,40.25
2022-08-11T16:27:02.422Z,41.81
2022-08-11T16:28:01.391Z,40.97
2022-08-11T16:30:31.573Z,40.90
2022-08-11T16:33:00.522Z,41.16
2022-08-11T16:36:07.810Z,41.17
2022-08-11T16:38:37.125Z,42.25
2022-08-11T16:41:13.308Z,41.36
2022-08-11T16:44:04.980Z,42.02
2022-08-11T16:46:52.776Z,42.17
2022-08-11T16:49:37.171Z,42.39
2022-08-11T16:52:13.017Z,41.98
2022-08-11T16:54:44.644Z,41.92
2022-08-11T16:57:35.309Z,42.66
2022-08-11T17:00:07.636Z,42.42
2022-08-11T17:03:12.260Z,43.02
2022-08-11T17:06:04.892Z,43.53
2022-08-11T17:08:57.551Z,42.91
2022-08-11T17:11:47.063Z,43.65
2022-08-11T17:14:35.029Z,43.82
2022-08-11T17:17:17.816Z,44.39
2022-08-11T17:20:40.517Z,44.67
2022-08-11T17:22:59.176Z,45.53
2022-08-11T17:25:28.708Z,44.96
2022-08-11T17:27:57.375Z,44.73
2022-08-11T17:30:46.370Z,45.59
2022-08-11T17:33:41.688Z,45.77
2022-08-11T17:36:11.445Z,45.79
2022-08-11T17:38:39.972Z,46.63
2022-08-11T17:41:28.176Z,46.41
2022-08-11T17:44:19.617Z,46.67
2022-08-11T17:47:07.212Z,46.96
2022-08-11T17:49:40.648Z,47.90
2022-08-11T17:52:35.070Z,47.51
2022-08-11T17:55:52.119Z,48.01
2022-08-11T17:58:31.946Z,48.09
2022-08-11T18:01:08.872Z,48.70
2022-08-11T18:03:56.272Z,48.51
2022-08-11T18:06:35.044Z,48.42
2022-08-11T18:09:24.693Z,49.27
2022-08-11T18:12:13.335Z,48.91
2022-08-11T18:15:04.614Z,50.46
2022-08-11T18:17:51.935Z,49.08
2022-08-11T18:20:39.263Z,49.87
2022-08-11T18:23:46.325Z,49.28
2022-08-11T18:26:39.162Z,50.50
2022-08-11T18:29:27.372Z,50.21
2022-08-11T18:32:20.825Z,50.31
2022-08-11T18:35:10.383Z,50.47
2022-08-11T18:41:11.040Z,50.90
2022-08-11T18:44:01.237Z,50.92
2022-08-11T18:46:52.679Z,51.53
2022-08-11T18:50:03.627Z,51.46
2022-08-11T18:52:53.207Z,51.59
2022-08-11T18:55:40.952Z,52.16
2022-08-11T18:58:29.869Z,54.69
2022-08-11T19:01:18.762Z,56.58
2022-08-11T19:04:10.674Z,60.53
2022-08-11T19:07:00.959Z,61.53
2022-08-11T19:09:48.968Z,61.83
2022-08-11T19:12:36.556Z,60.75
2022-08-11T19:15:24.478Z,62.24
2022-08-11T19:18:15.395Z,61.83
2022-08-11T19:21:01.881Z,60.54
2022-08-11T19:23:54.126Z,61.15
2022-08-11T19:26:40.065Z,60.14
2022-08-11T19:30:07.193Z,60.56
2022-08-11T19:32:32.106Z,60.09
2022-08-11T19:35:19.189Z,59.10
2022-08-11T19:38:05.999Z,59.14
2022-08-11T19:40:53.159Z,59.45
2022-08-11T19:43:39.254Z,59.41
2022-08-11T19:46:25.039Z,58.44
2022-08-11T19:49:12.396Z,58.97
2022-08-11T19:51:58.662Z,59.05
2022-08-11T19:54:46.034Z,57.99
2022-08-11T19:57:37.094Z,58.07
2022-08-11T20:00:36.965Z,58.92
2022-08-11T20:03:32.878Z,59.12
2022-08-11T20:06:21.364Z,59.17
2022-08-11T20:09:08.583Z,59.50
2022-08-11T20:11:58.501Z,59.11
2022-08-11T20:14:45.936Z,58.68
2022-08-11T20:17:31.926Z,59.76
2022-08-11T20:20:18.935Z,58.89
2022-08-11T20:23:05.480Z,59.17
2022-08-11T20:25:53.190Z,58.85
2022-08-11T20:28:41.632Z,60.11
2022-08-11T20:31:27.547Z,59.12
2022-08-11T20:34:13.344Z,58.84
2022-08-11T20:36:59.306Z,59.53
2022-08-11T20:39:45.161Z,58.60
2022-08-11T20:42:31.339Z,59.41
2022-08-11T20:45:23.445Z,59.63
2022-08-11T20:48:14.859Z,58.79
2022-08-11T20:51:17.652Z,59.57
2022-08-11T20:54:05.776Z,59.76
2022-08-11T20:56:53.417Z,59.14
2022-08-11T20:59:49.534Z,60.30
2022-08-11T21:02:44.408Z,60.10
2022-08-11T21:06:09.908Z,59.76
2022-08-11T21:08:38.984Z,60.15
2022-08-11T21:11:28.175Z,60.28
2022-08-11T21:14:14.742Z,61.43
2022-08-11T21:17:00.567Z,60.93
2022-08-11T21:20:00.216Z,61.47
2022-08-11T21:23:05.388Z,61.13
2022-08-11T21:25:59.380Z,61.57
2022-08-11T21:28:46.223Z,60.37
2022-08-11T21:31:32.159Z,59.66
2022-08-11T21:34:18.161Z,59.67
2022-08-11T21:37:03.966Z,61.75
2022-08-11T21:39:49.922Z,59.77
2022-08-11T21:42:35.874Z,61.77
2022-08-11T21:45:21.737Z,60.17
2022-08-11T21:48:07.741Z,60.88
2022-08-11T21:50:53.633Z,60.37
2022-08-11T21:53:39.461Z,60.46
2022-08-11T21:56:27.576Z,62.27
2022-08-11T21:59:14.243Z,62.50
2022-08-11T22:01:59.963Z,62.72
2022-08-11T22:04:45.955Z,62.50
2022-08-11T22:07:31.700Z,64.20
2022-08-11T22:10:40.417Z,64.70
2022-08-11T22:13:27.580Z,64.64
2022-08-11T22:16:17.846Z,63.48
2022-08-11T22:19:05.310Z,64.53
2022-08-11T22:22:01.604Z,62.86
2022-08-11T22:24:51.494Z,63.09
2022-08-11T22:27:37.780Z,63.21
2022-08-11T22:30:27.706Z,63.56
2022-08-11T22:33:15.332Z,64.31
2022-08-11T22:36:02.222Z,62.99
2022-08-11T22:38:48.229Z,61.28
2022-08-11T22:41:34.153Z,62.55
2022-08-11T22:44:20.079Z,63.54
2022-08-11T22:47:06.093Z,65.06
2022-08-11T22:49:58.089Z,65.37
2022-08-11T22:52:45.203Z,66.54
2022-08-11T22:55:31.029Z,70.41
2022-08-11T22:58:17.024Z,68.25
2022-08-11T23:01:02.895Z,68.64
2022-08-11T23:03:50.416Z,73.98
2022-08-11T23:06:37.642Z,74.39
2022-08-11T23:09:24.145Z,73.66
2022-08-11T23:12:10.578Z,77.27
2022-08-11T23:14:58.822Z,79.51
2022-08-11T23:17:45.721Z,80.50
2022-08-11T23:20:40.836Z,80.11
2022-08-11T23:23:33.643Z,81.66
2022-08-11T23:26:19.498Z,83.33
2022-08-11T23:29:06.304Z,81.68
2022-08-11T23:31:53.987Z,83.81
2022-08-11T23:35:04.301Z,83.89
2022-08-11T23:37:48.123Z,85.67
2022-08-11T23:40:33.939Z,84.89
2022-08-11T23:43:19.712Z,85.71
2022-08-11T23:46:05.652Z,85.22
2022-08-11T23:48:52.059Z,85.39
2022-08-11T23:51:41.209Z,85.27
2022-08-11T23:54:29.015Z,86.59
2022-08-11T23:57:16.994Z,88.24
